sensor_id;sensor_type;location;lat;lon;timestamp;temperature;humidity
45643;DHT22;31358;46.008;11.144;2022-07-23T00:00:05;27.70;77.10
45643;DHT22;31358;46.008;11.144;2022-07-23T00:02:31;27.70;77.10
45643;DHT22;31358;46.008;11.144;2022-07-23T00:04:56;27.60;77.30
45643;DHT22;31358;46.008;11.144;2022-07-23T00:07:22;27.60;77.40
45643;DHT22;31358;46.008;11.144;2022-07-23T00:09:48;27.60;77.30
45643;DHT22;31358;46.008;11.144;2022-07-23T00:12:13;27.60;77.40
45643;DHT22;31358;46.008;11.144;2022-07-23T00:14:39;27.50;77.50
45643;DHT22;31358;46.008;11.144;2022-07-23T00:17:04;27.50;77.40
45643;DHT22;31358;46.008;11.144;2022-07-23T00:19:30;27.40;77.60
45643;DHT22;31358;46.008;11.144;2022-07-23T00:21:56;27.30;77.80
45643;DHT22;31358;46.008;11.144;2022-07-23T00:24:21;27.30;77.90
45643;DHT22;31358;46.008;11.144;2022-07-23T00:26:47;27.10;78.00
45643;DHT22;31358;46.008;11.144;2022-07-23T00:29:13;27.10;78.10
45643;DHT22;31358;46.008;11.144;2022-07-23T00:31:38;27.00;78.40
45643;DHT22;31358;46.008;11.144;2022-07-23T00:34:04;26.80;78.60
45643;DHT22;31358;46.008;11.144;2022-07-23T00:36:30;26.80;78.90
45643;DHT22;31358;46.008;11.144;2022-07-23T00:38:56;26.60;79.00
45643;DHT22;31358;46.008;11.144;2022-07-23T00:41:22;26.80;78.80
45643;DHT22;31358;46.008;11.144;2022-07-23T00:43:48;26.80;78.70
45643;DHT22;31358;46.008;11.144;2022-07-23T00:46:22;26.90;78.60
45643;DHT22;31358;46.008;11.144;2022-07-23T00:48:48;26.80;78.70
45643;DHT22;31358;46.008;11.144;2022-07-23T00:51:15;26.80;78.80
45643;DHT22;31358;46.008;11.144;2022-07-23T00:53:42;26.70;79.00
45643;DHT22;31358;46.008;11.144;2022-07-23T00:56:07;26.60;79.30
45643;DHT22;31358;46.008;11.144;2022-07-23T00:58:35;26.60;79.30
45643;DHT22;31358;46.008;11.144;2022-07-23T01:01:02;26.50;79.40
45643;DHT22;31358;46.008;11.144;2022-07-23T01:03:27;26.40;79.60
45643;DHT22;31358;46.008;11.144;2022-07-23T01:05:53;26.30;79.80
45643;DHT22;31358;46.008;11.144;2022-07-23T01:08:19;26.30;79.80
45643;DHT22;31358;46.008;11.144;2022-07-23T01:10:48;26.40;79.60
45643;DHT22;31358;46.008;11.144;2022-07-23T01:13:14;26.40;79.40
45643;DHT22;31358;46.008;11.144;2022-07-23T01:15:40;26.50;79.30
45643;DHT22;31358;46.008;11.144;2022-07-23T01:18:07;26.60;79.10
45643;DHT22;31358;46.008;11.144;2022-07-23T01:20:33;26.50;79.10
45643;DHT22;31358;46.008;11.144;2022-07-23T01:23:00;26.40;79.40
45643;DHT22;31358;46.008;11.144;2022-07-23T01:25:26;26.40;79.70
45643;DHT22;31358;46.008;11.144;2022-07-23T01:27:52;26.30;79.70
45643;DHT22;31358;46.008;11.144;2022-07-23T01:30:19;26.30;79.60
45643;DHT22;31358;46.008;11.144;2022-07-23T01:32:45;26.40;79.50
45643;DHT22;31358;46.008;11.144;2022-07-23T01:35:11;26.40;79.40
45643;DHT22;31358;46.008;11.144;2022-07-23T01:37:37;26.40;79.30
45643;DHT22;31358;46.008;11.144;2022-07-23T01:40:04;26.40;79.10
45643;DHT22;31358;46.008;11.144;2022-07-23T01:42:30;26.60;78.90
45643;DHT22;31358;46.008;11.144;2022-07-23T01:44:56;26.50;79.20
45643;DHT22;31358;46.008;11.144;2022-07-23T01:47:21;26.60;78.70
45643;DHT22;31358;46.008;11.144;2022-07-23T01:49:47;26.70;78.60
45643;DHT22;31358;46.008;11.144;2022-07-23T01:52:13;26.60;79.10
45643;DHT22;31358;46.008;11.144;2022-07-23T01:54:39;26.40;79.30
45643;DHT22;31358;46.008;11.144;2022-07-23T01:57:05;26.30;79.60
45643;DHT22;31358;46.008;11.144;2022-07-23T01:59:31;26.20;80.30
45643;DHT22;31358;46.008;11.144;2022-07-23T02:01:57;26.10;80.10
45643;DHT22;31358;46.008;11.144;2022-07-23T02:04:24;26.10;80.20
45643;DHT22;31358;46.008;11.144;2022-07-23T02:06:50;26.00;80.30
45643;DHT22;31358;46.008;11.144;2022-07-23T02:09:16;26.00;80.50
45643;DHT22;31358;46.008;11.144;2022-07-23T02:11:42;25.90;80.50
45643;DHT22;31358;46.008;11.144;2022-07-23T02:14:08;26.00;80.30
45643;DHT22;31358;46.008;11.144;2022-07-23T02:16:33;26.10;80.40
45643;DHT22;31358;46.008;11.144;2022-07-23T02:18:59;26.00;80.50
45643;DHT22;31358;46.008;11.144;2022-07-23T02:21:25;26.00;80.50
45643;DHT22;31358;46.008;11.144;2022-07-23T02:23:50;26.10;80.50
45643;DHT22;31358;46.008;11.144;2022-07-23T02:26:16;26.20;80.30
45643;DHT22;31358;46.008;11.144;2022-07-23T02:28:42;26.20;80.10
45643;DHT22;31358;46.008;11.144;2022-07-23T02:31:07;26.30;79.90
45643;DHT22;31358;46.008;11.144;2022-07-23T02:33:34;26.40;79.90
45643;DHT22;31358;46.008;11.144;2022-07-23T02:35:59;26.30;80.00
45643;DHT22;31358;46.008;11.144;2022-07-23T02:38:26;26.30;80.10
45643;DHT22;31358;46.008;11.144;2022-07-23T02:40:51;26.20;80.20
45643;DHT22;31358;46.008;11.144;2022-07-23T02:43:17;26.30;80.30
45643;DHT22;31358;46.008;11.144;2022-07-23T02:45:43;26.30;80.20
45643;DHT22;31358;46.008;11.144;2022-07-23T02:48:08;26.30;80.10
45643;DHT22;31358;46.008;11.144;2022-07-23T02:50:34;26.30;79.90
45643;DHT22;31358;46.008;11.144;2022-07-23T02:53:00;26.40;80.20
45643;DHT22;31358;46.008;11.144;2022-07-23T02:55:26;26.30;80.20
45643;DHT22;31358;46.008;11.144;2022-07-23T02:57:52;26.20;81.10
45643;DHT22;31358;46.008;11.144;2022-07-23T03:00:17;26.10;80.40
45643;DHT22;31358;46.008;11.144;2022-07-23T03:02:43;26.10;80.40
45643;DHT22;31358;46.008;11.144;2022-07-23T03:05:09;25.90;80.80
45643;DHT22;31358;46.008;11.144;2022-07-23T03:07:35;26.00;80.80
45643;DHT22;31358;46.008;11.144;2022-07-23T03:10:01;26.00;80.70
45643;DHT22;31358;46.008;11.144;2022-07-23T03:12:27;26.10;80.60
45643;DHT22;31358;46.008;11.144;2022-07-23T03:14:52;26.00;80.80
45643;DHT22;31358;46.008;11.144;2022-07-23T03:17:18;26.00;80.80
45643;DHT22;31358;46.008;11.144;2022-07-23T03:19:44;25.90;81.10
45643;DHT22;31358;46.008;11.144;2022-07-23T03:22:09;25.80;81.40
45643;DHT22;31358;46.008;11.144;2022-07-23T03:24:35;25.80;81.50
45643;DHT22;31358;46.008;11.144;2022-07-23T03:27:20;25.80;81.50
45643;DHT22;31358;46.008;11.144;2022-07-23T03:29:45;25.70;81.80
45643;DHT22;31358;46.008;11.144;2022-07-23T03:32:11;25.70;81.90
45643;DHT22;31358;46.008;11.144;2022-07-23T03:34:38;25.70;81.80
45643;DHT22;31358;46.008;11.144;2022-07-23T03:37:04;25.80;81.50
45643;DHT22;31358;46.008;11.144;2022-07-23T03:39:29;25.80;81.10
45643;DHT22;31358;46.008;11.144;2022-07-23T03:41:55;25.90;80.90
45643;DHT22;31358;46.008;11.144;2022-07-23T03:44:21;26.10;80.70
45643;DHT22;31358;46.008;11.144;2022-07-23T03:46:47;26.10;80.70
45643;DHT22;31358;46.008;11.144;2022-07-23T03:49:13;26.20;80.50
45643;DHT22;31358;46.008;11.144;2022-07-23T03:51:38;26.30;80.20
45643;DHT22;31358;46.008;11.144;2022-07-23T03:54:04;26.30;80.20
45643;DHT22;31358;46.008;11.144;2022-07-23T03:56:30;26.40;80.20
45643;DHT22;31358;46.008;11.144;2022-07-23T03:58:56;26.30;80.50
45643;DHT22;31358;46.008;11.144;2022-07-23T04:01:21;26.20;80.60
45643;DHT22;31358;46.008;11.144;2022-07-23T04:03:47;26.20;80.50
45643;DHT22;31358;46.008;11.144;2022-07-23T04:06:13;26.10;80.40
45643;DHT22;31358;46.008;11.144;2022-07-23T04:08:38;26.20;80.50
45643;DHT22;31358;46.008;11.144;2022-07-23T04:11:04;26.20;80.70
45643;DHT22;31358;46.008;11.144;2022-07-23T04:13:30;26.20;81.10
45643;DHT22;31358;46.008;11.144;2022-07-23T04:15:58;26.10;81.50
45643;DHT22;31358;46.008;11.144;2022-07-23T04:18:23;26.00;81.30
45643;DHT22;31358;46.008;11.144;2022-07-23T04:20:51;26.00;81.70
45643;DHT22;31358;46.008;11.144;2022-07-23T04:23:17;26.20;81.20
45643;DHT22;31358;46.008;11.144;2022-07-23T04:25:42;26.20;81.20
45643;DHT22;31358;46.008;11.144;2022-07-23T04:28:08;26.20;81.40
45643;DHT22;31358;46.008;11.144;2022-07-23T04:30:34;26.20;81.50
45643;DHT22;31358;46.008;11.144;2022-07-23T04:33:00;26.20;81.60
45643;DHT22;31358;46.008;11.144;2022-07-23T04:35:25;26.20;82.10
45643;DHT22;31358;46.008;11.144;2022-07-23T04:37:51;26.20;81.30
45643;DHT22;31358;46.008;11.144;2022-07-23T04:40:17;26.10;81.50
45643;DHT22;31358;46.008;11.144;2022-07-23T04:42:43;26.00;81.50
45643;DHT22;31358;46.008;11.144;2022-07-23T04:45:09;26.00;81.60
45643;DHT22;31358;46.008;11.144;2022-07-23T04:47:34;26.10;81.50
45643;DHT22;31358;46.008;11.144;2022-07-23T04:50:00;26.20;81.10
45643;DHT22;31358;46.008;11.144;2022-07-23T04:52:26;26.20;81.00
45643;DHT22;31358;46.008;11.144;2022-07-23T04:54:51;26.40;80.90
45643;DHT22;31358;46.008;11.144;2022-07-23T04:57:17;26.30;81.30
45643;DHT22;31358;46.008;11.144;2022-07-23T04:59:42;26.30;81.40
45643;DHT22;31358;46.008;11.144;2022-07-23T05:02:08;26.20;81.50
45643;DHT22;31358;46.008;11.144;2022-07-23T05:04:34;26.30;81.00
45643;DHT22;31358;46.008;11.144;2022-07-23T05:07:00;26.30;80.80
45643;DHT22;31358;46.008;11.144;2022-07-23T05:09:25;26.40;80.70
45643;DHT22;31358;46.008;11.144;2022-07-23T05:11:51;26.30;81.00
45643;DHT22;31358;46.008;11.144;2022-07-23T05:14:17;26.30;80.60
45643;DHT22;31358;46.008;11.144;2022-07-23T05:16:43;26.30;80.60
45643;DHT22;31358;46.008;11.144;2022-07-23T05:19:08;26.40;80.40
45643;DHT22;31358;46.008;11.144;2022-07-23T05:21:34;26.40;79.80
45643;DHT22;31358;46.008;11.144;2022-07-23T05:24:00;26.40;80.40
45643;DHT22;31358;46.008;11.144;2022-07-23T05:26:25;26.40;79.70
45643;DHT22;31358;46.008;11.144;2022-07-23T05:28:51;26.50;79.40
45643;DHT22;31358;46.008;11.144;2022-07-23T05:31:17;26.50;79.10
45643;DHT22;31358;46.008;11.144;2022-07-23T05:33:43;26.50;79.10
45643;DHT22;31358;46.008;11.144;2022-07-23T05:36:09;26.60;79.50
45643;DHT22;31358;46.008;11.144;2022-07-23T05:38:35;26.50;80.10
45643;DHT22;31358;46.008;11.144;2022-07-23T05:41:01;26.50;79.30
45643;DHT22;31358;46.008;11.144;2022-07-23T05:43:27;26.60;79.10
45643;DHT22;31358;46.008;11.144;2022-07-23T05:45:53;26.40;79.10
45643;DHT22;31358;46.008;11.144;2022-07-23T05:48:19;26.60;79.40
45643;DHT22;31358;46.008;11.144;2022-07-23T05:50:46;26.40;79.10
45643;DHT22;31358;46.008;11.144;2022-07-23T05:53:11;26.30;79.10
45643;DHT22;31358;46.008;11.144;2022-07-23T05:55:37;26.20;78.90
45643;DHT22;31358;46.008;11.144;2022-07-23T05:58:02;26.10;78.50
45643;DHT22;31358;46.008;11.144;2022-07-23T06:00:28;26.10;78.40
45643;DHT22;31358;46.008;11.144;2022-07-23T06:02:54;26.00;79.00
45643;DHT22;31358;46.008;11.144;2022-07-23T06:05:20;26.20;78.60
45643;DHT22;31358;46.008;11.144;2022-07-23T06:07:46;26.00;78.60
45643;DHT22;31358;46.008;11.144;2022-07-23T06:10:11;26.00;78.20
45643;DHT22;31358;46.008;11.144;2022-07-23T06:12:37;26.00;78.00
45643;DHT22;31358;46.008;11.144;2022-07-23T06:15:04;25.90;77.50
45643;DHT22;31358;46.008;11.144;2022-07-23T06:17:30;25.90;76.80
45643;DHT22;31358;46.008;11.144;2022-07-23T06:19:56;26.00;77.20
45643;DHT22;31358;46.008;11.144;2022-07-23T06:22:21;26.20;77.20
45643;DHT22;31358;46.008;11.144;2022-07-23T06:24:48;25.90;76.60
45643;DHT22;31358;46.008;11.144;2022-07-23T06:27:14;26.00;76.20
45643;DHT22;31358;46.008;11.144;2022-07-23T06:29:39;26.00;76.10
45643;DHT22;31358;46.008;11.144;2022-07-23T06:32:06;26.10;76.50
45643;DHT22;31358;46.008;11.144;2022-07-23T06:34:33;26.30;76.30
45643;DHT22;31358;46.008;11.144;2022-07-23T06:36:59;26.20;76.70
45643;DHT22;31358;46.008;11.144;2022-07-23T06:39:25;26.30;76.40
45643;DHT22;31358;46.008;11.144;2022-07-23T06:41:51;26.50;76.30
45643;DHT22;31358;46.008;11.144;2022-07-23T06:44:16;26.60;76.50
45643;DHT22;31358;46.008;11.144;2022-07-23T06:46:42;26.70;76.10
45643;DHT22;31358;46.008;11.144;2022-07-23T06:49:08;26.90;75.80
45643;DHT22;31358;46.008;11.144;2022-07-23T06:51:34;26.90;75.40
45643;DHT22;31358;46.008;11.144;2022-07-23T06:54:00;27.00;75.20
45643;DHT22;31358;46.008;11.144;2022-07-23T06:56:25;27.00;75.00
45643;DHT22;31358;46.008;11.144;2022-07-23T06:58:51;27.00;75.10
45643;DHT22;31358;46.008;11.144;2022-07-23T07:01:17;26.90;75.00
45643;DHT22;31358;46.008;11.144;2022-07-23T07:03:43;27.10;75.00
45643;DHT22;31358;46.008;11.144;2022-07-23T07:06:08;27.30;74.80
45643;DHT22;31358;46.008;11.144;2022-07-23T07:08:34;27.20;74.50
45643;DHT22;31358;46.008;11.144;2022-07-23T07:11:00;27.40;74.60
45643;DHT22;31358;46.008;11.144;2022-07-23T07:13:26;27.60;74.30
45643;DHT22;31358;46.008;11.144;2022-07-23T07:15:51;27.70;74.30
45643;DHT22;31358;46.008;11.144;2022-07-23T07:18:17;28.10;73.80
45643;DHT22;31358;46.008;11.144;2022-07-23T07:20:42;27.90;74.90
45643;DHT22;31358;46.008;11.144;2022-07-23T07:23:08;28.00;74.30
45643;DHT22;31358;46.008;11.144;2022-07-23T07:25:34;28.30;74.40
45643;DHT22;31358;46.008;11.144;2022-07-23T07:28:00;28.30;73.70
45643;DHT22;31358;46.008;11.144;2022-07-23T07:30:26;28.70;73.70
45643;DHT22;31358;46.008;11.144;2022-07-23T07:32:52;29.30;73.60
45643;DHT22;31358;46.008;11.144;2022-07-23T07:35:17;30.10;73.20
45643;DHT22;31358;46.008;11.144;2022-07-23T07:37:43;30.30;71.10
45643;DHT22;31358;46.008;11.144;2022-07-23T07:40:09;29.50;72.40
45643;DHT22;31358;46.008;11.144;2022-07-23T07:42:43;29.80;72.50
45643;DHT22;31358;46.008;11.144;2022-07-23T07:45:09;30.70;71.40
45643;DHT22;31358;46.008;11.144;2022-07-23T07:47:34;30.60;72.00
45643;DHT22;31358;46.008;11.144;2022-07-23T07:50:00;30.30;71.90
45643;DHT22;31358;46.008;11.144;2022-07-23T07:52:26;28.80;73.10
45643;DHT22;31358;46.008;11.144;2022-07-23T07:54:51;28.30;74.30
45643;DHT22;31358;46.008;11.144;2022-07-23T07:57:17;27.90;74.90
45643;DHT22;31358;46.008;11.144;2022-07-23T07:59:43;28.50;74.60
45643;DHT22;31358;46.008;11.144;2022-07-23T08:02:08;28.90;74.00
45643;DHT22;31358;46.008;11.144;2022-07-23T08:04:34;29.90;72.20
45643;DHT22;31358;46.008;11.144;2022-07-23T08:07:00;30.60;72.00
45643;DHT22;31358;46.008;11.144;2022-07-23T08:09:25;31.00;71.30
45643;DHT22;31358;46.008;11.144;2022-07-23T08:11:51;30.10;72.80
45643;DHT22;31358;46.008;11.144;2022-07-23T08:14:17;29.30;72.80
45643;DHT22;31358;46.008;11.144;2022-07-23T08:16:43;28.30;75.10
45643;DHT22;31358;46.008;11.144;2022-07-23T08:19:09;27.90;75.90
45643;DHT22;31358;46.008;11.144;2022-07-23T08:21:34;27.70;76.20
45643;DHT22;31358;46.008;11.144;2022-07-23T08:24:00;27.40;76.70
45643;DHT22;31358;46.008;11.144;2022-07-23T08:26:26;27.20;77.00
45643;DHT22;31358;46.008;11.144;2022-07-23T08:28:51;27.20;76.80
45643;DHT22;31358;46.008;11.144;2022-07-23T08:31:17;27.10;76.50
45643;DHT22;31358;46.008;11.144;2022-07-23T08:33:44;27.30;76.60
45643;DHT22;31358;46.008;11.144;2022-07-23T08:36:09;27.60;76.50
45643;DHT22;31358;46.008;11.144;2022-07-23T08:38:35;28.00;76.80
45643;DHT22;31358;46.008;11.144;2022-07-23T08:41:01;28.10;76.70
45643;DHT22;31358;46.008;11.144;2022-07-23T08:43:29;28.20;76.20
45643;DHT22;31358;46.008;11.144;2022-07-23T08:45:56;28.00;76.40
45643;DHT22;31358;46.008;11.144;2022-07-23T08:48:24;27.80;77.00
45643;DHT22;31358;46.008;11.144;2022-07-23T08:50:52;27.90;76.90
45643;DHT22;31358;46.008;11.144;2022-07-23T08:53:20;27.80;76.90
45643;DHT22;31358;46.008;11.144;2022-07-23T08:55:47;28.30;76.70
45643;DHT22;31358;46.008;11.144;2022-07-23T08:58:14;28.40;76.30
45643;DHT22;31358;46.008;11.144;2022-07-23T09:00:40;28.30;76.10
45643;DHT22;31358;46.008;11.144;2022-07-23T09:03:05;28.30;75.90
45643;DHT22;31358;46.008;11.144;2022-07-23T09:05:31;28.60;76.30
45643;DHT22;31358;46.008;11.144;2022-07-23T09:16:08;29.20;74.90
45643;DHT22;31358;46.008;11.144;2022-07-23T09:18:41;29.20;74.90
45643;DHT22;31358;46.008;11.144;2022-07-23T09:29:23;29.60;75.20
45643;DHT22;31358;46.008;11.144;2022-07-23T09:32:01;30.00;74.60
45643;DHT22;31358;46.008;11.144;2022-07-23T09:34:29;29.80;74.40
45643;DHT22;31358;46.008;11.144;2022-07-23T09:37:18;30.20;75.00
45643;DHT22;31358;46.008;11.144;2022-07-23T09:39:46;30.10;73.70
45643;DHT22;31358;46.008;11.144;2022-07-23T09:42:21;30.00;74.00
45643;DHT22;31358;46.008;11.144;2022-07-23T09:44:52;29.90;74.60
45643;DHT22;31358;46.008;11.144;2022-07-23T09:47:19;29.70;74.20
45643;DHT22;31358;46.008;11.144;2022-07-23T09:50:17;29.60;74.90
45643;DHT22;31358;46.008;11.144;2022-07-23T09:52:47;29.80;74.70
45643;DHT22;31358;46.008;11.144;2022-07-23T09:55:14;30.00;74.80
45643;DHT22;31358;46.008;11.144;2022-07-23T09:57:41;30.00;74.60
45643;DHT22;31358;46.008;11.144;2022-07-23T10:00:09;30.10;74.20
45643;DHT22;31358;46.008;11.144;2022-07-23T10:02:36;30.00;74.00
45643;DHT22;31358;46.008;11.144;2022-07-23T10:05:03;30.10;73.80
45643;DHT22;31358;46.008;11.144;2022-07-23T10:07:32;30.00;72.90
45643;DHT22;31358;46.008;11.144;2022-07-23T10:09:59;29.90;73.20
45643;DHT22;31358;46.008;11.144;2022-07-23T10:12:25;30.20;73.60
45643;DHT22;31358;46.008;11.144;2022-07-23T10:15:10;30.40;72.90
45643;DHT22;31358;46.008;11.144;2022-07-23T10:17:36;29.90;72.60
45643;DHT22;31358;46.008;11.144;2022-07-23T10:20:03;29.80;72.30
45643;DHT22;31358;46.008;11.144;2022-07-23T10:22:31;29.90;72.00
45643;DHT22;31358;46.008;11.144;2022-07-23T10:28:08;30.10;71.80
45643;DHT22;31358;46.008;11.144;2022-07-23T10:34:47;30.30;71.20
45643;DHT22;31358;46.008;11.144;2022-07-23T10:41:43;30.80;71.20
45643;DHT22;31358;46.008;11.144;2022-07-23T10:44:16;30.90;71.00
45643;DHT22;31358;46.008;11.144;2022-07-23T10:47:03;30.60;71.00
45643;DHT22;31358;46.008;11.144;2022-07-23T10:49:48;30.60;71.40
45643;DHT22;31358;46.008;11.144;2022-07-23T10:54:56;31.10;71.10
45643;DHT22;31358;46.008;11.144;2022-07-23T10:57:49;31.00;69.90
45643;DHT22;31358;46.008;11.144;2022-07-23T11:00:23;31.20;70.20
45643;DHT22;31358;46.008;11.144;2022-07-23T11:02:52;31.40;69.90
45643;DHT22;31358;46.008;11.144;2022-07-23T11:24:05;31.10;70.80
45643;DHT22;31358;46.008;11.144;2022-07-23T11:29:39;31.30;71.10
45643;DHT22;31358;46.008;11.144;2022-07-23T11:32:20;31.30;70.80
45643;DHT22;31358;46.008;11.144;2022-07-23T11:34:50;31.70;71.10
45643;DHT22;31358;46.008;11.144;2022-07-23T11:40:04;32.10;70.60
45643;DHT22;31358;46.008;11.144;2022-07-23T11:42:30;32.10;70.60
45643;DHT22;31358;46.008;11.144;2022-07-23T11:44:56;32.30;71.30
45643;DHT22;31358;46.008;11.144;2022-07-23T11:47:23;32.40;69.80
45643;DHT22;31358;46.008;11.144;2022-07-23T11:49:57;32.50;69.20
45643;DHT22;31358;46.008;11.144;2022-07-23T11:52:24;32.60;69.30
45643;DHT22;31358;46.008;11.144;2022-07-23T11:55:03;33.10;69.80
45643;DHT22;31358;46.008;11.144;2022-07-23T11:57:32;33.10;69.30
45643;DHT22;31358;46.008;11.144;2022-07-23T12:02:33;33.10;69.20
45643;DHT22;31358;46.008;11.144;2022-07-23T12:04:59;32.80;69.10
45643;DHT22;31358;46.008;11.144;2022-07-23T12:07:36;32.80;69.40
45643;DHT22;31358;46.008;11.144;2022-07-23T12:10:10;32.60;68.80
45643;DHT22;31358;46.008;11.144;2022-07-23T12:12:36;32.80;69.10
45643;DHT22;31358;46.008;11.144;2022-07-23T12:15:03;33.10;69.20
45643;DHT22;31358;46.008;11.144;2022-07-23T12:17:32;33.10;69.70
45643;DHT22;31358;46.008;11.144;2022-07-23T12:19:59;33.30;69.00
45643;DHT22;31358;46.008;11.144;2022-07-23T12:22:32;33.40;68.30
45643;DHT22;31358;46.008;11.144;2022-07-23T12:25:00;33.80;69.00
45643;DHT22;31358;46.008;11.144;2022-07-23T12:27:27;33.50;68.70
45643;DHT22;31358;46.008;11.144;2022-07-23T12:29:54;33.80;68.70
45643;DHT22;31358;46.008;11.144;2022-07-23T12:32:26;33.40;68.10
45643;DHT22;31358;46.008;11.144;2022-07-23T12:35:12;33.40;69.00
45643;DHT22;31358;46.008;11.144;2022-07-23T12:37:43;33.80;68.90
45643;DHT22;31358;46.008;11.144;2022-07-23T12:43:11;33.70;68.10
45643;DHT22;31358;46.008;11.144;2022-07-23T12:48:22;34.50;67.70
45643;DHT22;31358;46.008;11.144;2022-07-23T12:53:21;34.30;67.00
45643;DHT22;31358;46.008;11.144;2022-07-23T12:55:47;34.40;68.30
45643;DHT22;31358;46.008;11.144;2022-07-23T12:58:18;34.60;67.90
45643;DHT22;31358;46.008;11.144;2022-07-23T13:00:58;34.80;67.80
45643;DHT22;31358;46.008;11.144;2022-07-23T13:03:44;34.20;67.70
45643;DHT22;31358;46.008;11.144;2022-07-23T13:06:19;34.20;67.80
45643;DHT22;31358;46.008;11.144;2022-07-23T13:08:45;34.10;67.90
45643;DHT22;31358;46.008;11.144;2022-07-23T13:11:10;34.00;67.90
45643;DHT22;31358;46.008;11.144;2022-07-23T13:13:36;33.80;69.20
45643;DHT22;31358;46.008;11.144;2022-07-23T13:16:02;33.50;68.50
45643;DHT22;31358;46.008;11.144;2022-07-23T13:18:29;33.40;69.00
45643;DHT22;31358;46.008;11.144;2022-07-23T13:20:55;33.20;69.00
45643;DHT22;31358;46.008;11.144;2022-07-23T13:23:21;33.10;69.00
45643;DHT22;31358;46.008;11.144;2022-07-23T13:25:47;33.10;69.40
45643;DHT22;31358;46.008;11.144;2022-07-23T13:28:14;33.00;69.30
45643;DHT22;31358;46.008;11.144;2022-07-23T13:30:41;32.90;69.30
45643;DHT22;31358;46.008;11.144;2022-07-23T13:33:07;33.20;69.30
45643;DHT22;31358;46.008;11.144;2022-07-23T13:35:35;33.20;68.90
45643;DHT22;31358;46.008;11.144;2022-07-23T13:38:01;32.80;69.70
45643;DHT22;31358;46.008;11.144;2022-07-23T13:40:28;32.50;69.70
45643;DHT22;31358;46.008;11.144;2022-07-23T13:42:53;32.30;70.00
45643;DHT22;31358;46.008;11.144;2022-07-23T13:45:19;32.50;70.20
45643;DHT22;31358;46.008;11.144;2022-07-23T13:47:45;32.90;69.60
45643;DHT22;31358;46.008;11.144;2022-07-23T13:50:11;32.60;70.40
45643;DHT22;31358;46.008;11.144;2022-07-23T13:52:36;32.40;70.40
45643;DHT22;31358;46.008;11.144;2022-07-23T13:55:05;32.50;70.60
45643;DHT22;31358;46.008;11.144;2022-07-23T13:57:32;32.40;70.10
45643;DHT22;31358;46.008;11.144;2022-07-23T13:59:58;32.60;70.10
45643;DHT22;31358;46.008;11.144;2022-07-23T14:02:24;33.00;69.90
45643;DHT22;31358;46.008;11.144;2022-07-23T14:04:50;32.80;69.50
45643;DHT22;31358;46.008;11.144;2022-07-23T14:07:16;32.80;69.70
45643;DHT22;31358;46.008;11.144;2022-07-23T14:09:41;32.70;69.90
45643;DHT22;31358;46.008;11.144;2022-07-23T14:12:07;32.70;69.90
45643;DHT22;31358;46.008;11.144;2022-07-23T14:14:33;32.90;69.60
45643;DHT22;31358;46.008;11.144;2022-07-23T14:16:59;33.40;69.30
45643;DHT22;31358;46.008;11.144;2022-07-23T14:19:25;34.00;69.30
45643;DHT22;31358;46.008;11.144;2022-07-23T14:21:51;33.70;68.50
45643;DHT22;31358;46.008;11.144;2022-07-23T14:24:17;33.60;68.40
45643;DHT22;31358;46.008;11.144;2022-07-23T14:26:42;33.70;68.80
45643;DHT22;31358;46.008;11.144;2022-07-23T14:29:08;33.40;68.30
45643;DHT22;31358;46.008;11.144;2022-07-23T14:31:34;33.10;68.60
45643;DHT22;31358;46.008;11.144;2022-07-23T14:34:00;33.00;68.80
45643;DHT22;31358;46.008;11.144;2022-07-23T14:36:26;33.30;69.00
45643;DHT22;31358;46.008;11.144;2022-07-23T14:38:51;33.30;68.50
45643;DHT22;31358;46.008;11.144;2022-07-23T14:41:17;33.10;68.70
45643;DHT22;31358;46.008;11.144;2022-07-23T14:43:43;33.00;69.00
45643;DHT22;31358;46.008;11.144;2022-07-23T14:46:10;33.20;69.10
45643;DHT22;31358;46.008;11.144;2022-07-23T14:48:36;33.40;69.80
45643;DHT22;31358;46.008;11.144;2022-07-23T14:51:02;33.10;69.00
45643;DHT22;31358;46.008;11.144;2022-07-23T14:53:28;33.00;69.20
45643;DHT22;31358;46.008;11.144;2022-07-23T14:55:54;32.70;70.00
45643;DHT22;31358;46.008;11.144;2022-07-23T14:58:25;32.40;70.00
45643;DHT22;31358;46.008;11.144;2022-07-23T15:00:51;32.30;70.30
45643;DHT22;31358;46.008;11.144;2022-07-23T15:03:17;32.30;70.40
45643;DHT22;31358;46.008;11.144;2022-07-23T15:05:42;32.50;70.30
45643;DHT22;31358;46.008;11.144;2022-07-23T15:08:08;32.50;70.60
45643;DHT22;31358;46.008;11.144;2022-07-23T15:10:34;32.40;70.40
45643;DHT22;31358;46.008;11.144;2022-07-23T15:13:00;32.20;70.00
45643;DHT22;31358;46.008;11.144;2022-07-23T15:15:25;32.00;70.60
45643;DHT22;31358;46.008;11.144;2022-07-23T15:17:51;32.00;70.10
45643;DHT22;31358;46.008;11.144;2022-07-23T15:20:17;31.90;70.10
45643;DHT22;31358;46.008;11.144;2022-07-23T15:22:42;31.80;70.10
45643;DHT22;31358;46.008;11.144;2022-07-23T15:25:11;31.50;69.70
45643;DHT22;31358;46.008;11.144;2022-07-23T15:27:37;31.40;69.70
45643;DHT22;31358;46.008;11.144;2022-07-23T15:30:05;31.30;70.00
45643;DHT22;31358;46.008;11.144;2022-07-23T15:32:31;31.10;70.10
45643;DHT22;31358;46.008;11.144;2022-07-23T15:34:57;31.00;70.30
45643;DHT22;31358;46.008;11.144;2022-07-23T15:37:23;31.10;70.40
45643;DHT22;31358;46.008;11.144;2022-07-23T15:39:49;31.20;70.60
45643;DHT22;31358;46.008;11.144;2022-07-23T15:42:15;31.10;70.60
45643;DHT22;31358;46.008;11.144;2022-07-23T15:44:42;31.40;70.20
45643;DHT22;31358;46.008;11.144;2022-07-23T15:47:13;31.20;71.00
45643;DHT22;31358;46.008;11.144;2022-07-23T15:49:39;31.30;71.30
45643;DHT22;31358;46.008;11.144;2022-07-23T15:52:04;31.20;71.50
45643;DHT22;31358;46.008;11.144;2022-07-23T15:54:30;31.20;71.50
45643;DHT22;31358;46.008;11.144;2022-07-23T15:56:56;31.20;71.80
45643;DHT22;31358;46.008;11.144;2022-07-23T15:59:22;31.00;72.20
45643;DHT22;31358;46.008;11.144;2022-07-23T16:01:48;31.10;72.20
45643;DHT22;31358;46.008;11.144;2022-07-23T16:04:14;31.20;72.40
45643;DHT22;31358;46.008;11.144;2022-07-23T16:06:39;31.30;72.40
45643;DHT22;31358;46.008;11.144;2022-07-23T16:09:07;31.30;72.60
45643;DHT22;31358;46.008;11.144;2022-07-23T16:11:33;31.10;71.90
45643;DHT22;31358;46.008;11.144;2022-07-23T16:13:59;31.30;72.30
45643;DHT22;31358;46.008;11.144;2022-07-23T16:16:26;31.50;72.50
45643;DHT22;31358;46.008;11.144;2022-07-23T16:18:53;31.60;72.10